createdAt,value
2024-03-29T00:02:47.110Z,76.61
2024-03-29T00:07:50.112Z,76.86
2024-03-29T00:12:53.117Z,77.98
2024-03-29T00:17:56.442Z,78.36
2024-03-29T00:22:59.574Z,78.51
2024-03-29T00:28:04.720Z,78.63
2024-03-29T00:33:07.573Z,77.90
2024-03-29T00:38:10.497Z,77.59
2024-03-29T00:43:13.592Z,76.85
2024-03-29T00:48:18.778Z,77.46
2024-03-29T00:53:21.758Z,77.28
2024-03-29T00:58:24.971Z,76.65
2024-03-29T01:03:29.911Z,77.32
2024-03-29T01:08:33.227Z,76.05
2024-03-29T01:13:36.238Z,75.86
2024-03-29T01:18:40.060Z,75.83
2024-03-29T01:23:43.080Z,74.49
2024-03-29T01:28:46.104Z,73.42
2024-03-29T01:33:49.038Z,73.64
2024-03-29T01:38:55.832Z,72.88
2024-03-29T01:43:58.947Z,72.35
2024-03-29T01:49:03.164Z,71.66
2024-03-29T01:54:06.287Z,71.95
2024-03-29T01:59:16.251Z,72.09
2024-03-29T02:04:19.572Z,72.64
2024-03-29T02:09:22.548Z,72.70
2024-03-29T02:14:25.591Z,72.59
2024-03-29T02:19:28.469Z,71.77
2024-03-29T02:24:31.413Z,71.77
2024-03-29T02:29:37.020Z,71.84
2024-03-29T02:34:40.088Z,71.94
2024-03-29T02:39:43.212Z,71.76
2024-03-29T02:44:47.710Z,70.97
2024-03-29T02:49:50.715Z,70.69
2024-03-29T02:54:53.671Z,70.58
2024-03-29T02:59:56.861Z,70.17
2024-03-29T03:05:01.942Z,70.00
2024-03-29T03:10:23.584Z,69.39
2024-03-29T03:15:26.484Z,68.41
2024-03-29T03:20:31.804Z,67.80
2024-03-29T03:25:35.570Z,66.40
2024-03-29T03:30:41.674Z,65.86
2024-03-29T03:35:45.459Z,65.64
2024-03-29T03:40:48.442Z,64.79
2024-03-29T03:45:51.571Z,64.73
2024-03-29T03:50:54.481Z,63.34
2024-03-29T03:55:57.464Z,63.26
2024-03-29T04:01:07.882Z,63.30
2024-03-29T04:06:10.788Z,63.72
2024-03-29T04:11:13.842Z,64.10
2024-03-29T04:16:16.754Z,64.96
2024-03-29T04:21:19.725Z,65.55
2024-03-29T04:26:23.820Z,66.10
2024-03-29T04:31:26.697Z,66.42
2024-03-29T04:36:29.666Z,66.51
2024-03-29T04:41:35.530Z,66.28
2024-03-29T04:46:38.454Z,66.61
2024-03-29T04:51:41.418Z,66.88
2024-03-29T04:56:44.663Z,67.03
2024-03-29T05:01:56.443Z,66.51
2024-03-29T05:06:59.748Z,65.67
2024-03-29T05:12:02.707Z,66.29
2024-03-29T05:17:05.650Z,65.13
2024-03-29T05:22:08.653Z,64.76
2024-03-29T05:27:12.891Z,63.93
2024-03-29T05:32:15.806Z,63.10
2024-03-29T05:37:19.597Z,62.06
2024-03-29T05:42:22.568Z,61.33
2024-03-29T05:47:25.515Z,60.12
2024-03-29T05:52:28.501Z,58.38
2024-03-29T05:57:33.051Z,56.62
2024-03-29T06:02:36.472Z,53.98
2024-03-29T06:07:39.524Z,51.20
2024-03-29T06:12:42.415Z,48.93
2024-03-29T06:17:46.923Z,47.52
2024-03-29T06:22:50.020Z,46.57
2024-03-29T06:27:53.054Z,45.44
2024-03-29T06:32:56.188Z,44.29
2024-03-29T06:37:59.392Z,43.02
2024-03-29T06:43:04.065Z,41.81
2024-03-29T06:48:07.570Z,40.32
2024-03-29T06:53:10.588Z,40.58
2024-03-29T06:58:13.677Z,40.46
2024-03-29T07:03:18.142Z,39.96
2024-03-29T07:08:21.933Z,37.96
2024-03-29T07:13:24.968Z,38.44
2024-03-29T07:18:28.561Z,39.17
2024-03-29T07:23:31.616Z,39.17
2024-03-29T07:28:34.796Z,38.35
2024-03-29T07:33:38.801Z,38.69
2024-03-29T07:38:41.901Z,37.68
2024-03-29T07:43:57.774Z,37.25
2024-03-29T07:49:01.186Z,35.86
2024-03-29T07:54:04.294Z,34.57
2024-03-29T07:59:07.364Z,34.96
2024-03-29T08:04:10.435Z,35.92
2024-03-29T08:09:15.159Z,37.63
2024-03-29T08:14:18.536Z,35.41
2024-03-29T08:19:24.719Z,32.31
2024-03-29T08:24:28.886Z,33.43
2024-03-29T08:29:31.917Z,33.73
2024-03-29T08:34:35.913Z,33.38
2024-03-29T08:39:39.161Z,30.97
2024-03-29T08:44:44.688Z,31.08
2024-03-29T08:49:48.013Z,28.62
2024-03-29T08:54:51.029Z,30.06
2024-03-29T08:59:54.543Z,31.39
2024-03-29T09:04:59.317Z,32.14
2024-03-29T09:10:02.285Z,32.39
2024-03-29T09:15:09.943Z,32.59
2024-03-29T09:20:13.544Z,31.42
2024-03-29T09:25:16.743Z,30.24
2024-03-29T09:30:20.902Z,29.50
2024-03-29T09:35:23.995Z,30.06
2024-03-29T09:40:28.335Z,28.92
2024-03-29T09:45:36.008Z,29.62
2024-03-29T09:50:39.404Z,29.07
2024-03-29T09:55:42.597Z,28.71
2024-03-29T10:00:46.268Z,30.01
2024-03-29T10:05:49.502Z,29.61
2024-03-29T10:10:53.183Z,28.87
2024-03-29T10:15:57.405Z,28.08
2024-03-29T10:21:04.391Z,29.63
2024-03-29T10:26:08.179Z,29.76
2024-03-29T10:31:12.797Z,29.57
2024-03-29T10:36:15.842Z,29.03
2024-03-29T10:41:19.244Z,27.94
2024-03-29T10:46:23.081Z,29.47
2024-03-29T10:51:26.174Z,26.41
2024-03-29T10:56:30.341Z,26.98
2024-03-29T11:01:34.388Z,27.40
2024-03-29T11:06:39.276Z,26.80
2024-03-29T11:11:49.516Z,26.97
2024-03-29T11:16:57.377Z,25.82
2024-03-29T11:22:01.584Z,26.05
2024-03-29T11:27:11.899Z,26.39
2024-03-29T11:32:15.942Z,26.10
2024-03-29T11:37:19.536Z,24.31
2024-03-29T11:42:46.776Z,25.14
2024-03-29T11:47:50.974Z,25.28
2024-03-29T11:52:54.304Z,25.51
2024-03-29T11:57:57.153Z,25.58
2024-03-29T12:03:00.201Z,25.27
2024-03-29T12:08:04.309Z,26.22
2024-03-29T12:13:07.747Z,26.92
2024-03-29T12:18:12.417Z,26.86
2024-03-29T12:23:15.444Z,26.73
2024-03-29T12:28:18.558Z,26.70
2024-03-29T12:33:22.809Z,26.25
2024-03-29T12:38:26.178Z,26.91
2024-03-29T12:43:29.606Z,26.25
2024-03-29T12:48:35.028Z,26.24
2024-03-29T12:53:40.241Z,26.23
2024-03-29T12:58:43.792Z,26.03
2024-03-29T13:03:46.820Z,25.21
2024-03-29T13:08:51.014Z,25.06
2024-03-29T13:13:54.606Z,25.33
2024-03-29T13:18:57.790Z,24.55
2024-03-29T13:24:00.856Z,25.38
2024-03-29T13:29:04.097Z,25.55
2024-03-29T13:34:13.287Z,25.47
2024-03-29T13:39:17.354Z,25.55
2024-03-29T13:44:20.699Z,25.77
2024-03-29T13:49:24.106Z,26.42
2024-03-29T13:54:27.029Z,27.33
2024-03-29T13:59:30.252Z,28.54
2024-03-29T14:04:33.264Z,28.66
2024-03-29T14:09:37.175Z,28.94
2024-03-29T14:14:40.652Z,29.58
2024-03-29T14:19:43.579Z,29.96
2024-03-29T14:24:46.630Z,30.34
2024-03-29T14:29:49.651Z,30.58
2024-03-29T14:34:53.724Z,30.21
2024-03-29T14:39:56.747Z,30.96
2024-03-29T14:44:59.866Z,31.16
2024-03-29T14:50:05.964Z,31.15
2024-03-29T14:55:09.159Z,31.83
2024-03-29T15:00:12.600Z,32.08
2024-03-29T15:05:15.605Z,31.82
2024-03-29T15:10:20.328Z,32.69
2024-03-29T15:15:23.384Z,33.08
2024-03-29T15:20:26.446Z,33.44
2024-03-29T15:25:29.566Z,33.67
2024-03-29T15:30:36.196Z,33.98
2024-03-29T15:35:39.538Z,34.15
2024-03-29T15:40:42.721Z,34.68
2024-03-29T15:45:46.166Z,34.80
2024-03-29T15:50:49.231Z,34.89
2024-03-29T15:55:52.707Z,34.97
2024-03-29T16:00:56.866Z,35.11
2024-03-29T16:05:59.864Z,35.28
2024-03-29T16:11:09.220Z,35.69
2024-03-29T16:16:12.532Z,36.08
2024-03-29T16:21:15.757Z,36.72
2024-03-29T16:26:18.867Z,37.18
2024-03-29T16:31:21.889Z,37.16
2024-03-29T16:36:25.219Z,37.46
2024-03-29T16:41:28.621Z,37.92
2024-03-29T16:46:31.599Z,39.12
2024-03-29T16:51:34.548Z,39.41
2024-03-29T16:56:37.692Z,39.40
2024-03-29T17:01:40.622Z,39.66
2024-03-29T17:06:43.593Z,40.86
2024-03-29T17:11:46.593Z,40.47
2024-03-29T17:16:51.309Z,41.52
2024-03-29T17:21:54.950Z,41.84
2024-03-29T17:26:59.242Z,42.67
2024-03-29T17:32:11.191Z,43.04
2024-03-29T17:37:16.492Z,42.11
2024-03-29T17:42:19.666Z,42.81
2024-03-29T17:47:23.422Z,43.50
2024-03-29T17:52:26.379Z,43.93
2024-03-29T17:57:29.331Z,44.39
2024-03-29T18:02:32.250Z,44.57
2024-03-29T18:07:35.328Z,44.65
2024-03-29T18:12:38.444Z,45.07
2024-03-29T18:17:41.649Z,44.75
2024-03-29T18:22:44.564Z,44.04
2024-03-29T18:27:47.529Z,44.89
2024-03-29T18:32:50.414Z,44.82
2024-03-29T18:37:53.428Z,44.40
2024-03-29T18:42:57.849Z,44.78
2024-03-29T18:48:00.827Z,45.18
2024-03-29T18:53:04.065Z,45.12
2024-03-29T18:58:06.983Z,45.24
2024-03-29T19:03:12.250Z,45.93
2024-03-29T19:08:15.390Z,45.50
2024-03-29T19:13:18.482Z,45.94
2024-03-29T19:18:21.576Z,45.61
2024-03-29T19:23:24.651Z,46.28
2024-03-29T19:28:28.391Z,46.19
2024-03-29T19:33:31.370Z,46.04
2024-03-29T19:38:34.424Z,46.06
2024-03-29T19:43:37.650Z,46.21
2024-03-29T19:48:40.600Z,45.46
2024-03-29T19:53:43.599Z,46.10
2024-03-29T19:58:46.760Z,45.31
2024-03-29T20:03:49.778Z,45.81
2024-03-29T20:08:52.722Z,45.70
2024-03-29T20:13:55.839Z,45.79
2024-03-29T20:19:02.948Z,45.28
2024-03-29T20:24:07.090Z,45.07
2024-03-29T20:29:10.179Z,45.17
2024-03-29T20:34:13.232Z,46.07
2024-03-29T20:39:17.331Z,45.94
2024-03-29T20:44:20.470Z,46.42
2024-03-29T20:49:23.582Z,47.16
2024-03-29T20:54:28.687Z,47.53
2024-03-29T20:59:34.675Z,47.92
2024-03-29T21:04:55.888Z,47.38
2024-03-29T21:09:58.758Z,46.93
2024-03-29T21:15:03.006Z,47.32
2024-03-29T21:20:10.746Z,47.04
2024-03-29T21:25:14.069Z,48.06
2024-03-29T21:30:19.501Z,48.37
2024-03-29T21:35:24.017Z,49.39
2024-03-29T21:40:27.605Z,49.88
2024-03-29T21:45:31.014Z,50.80
2024-03-29T21:50:33.893Z,51.98
2024-03-29T21:55:36.897Z,51.87
2024-03-29T22:00:39.823Z,51.71
2024-03-29T22:05:43.747Z,52.77
2024-03-29T22:10:46.754Z,52.81
2024-03-29T22:15:49.696Z,53.03
2024-03-29T22:20:53.266Z,52.79
2024-03-29T22:25:56.200Z,52.99
2024-03-29T22:30:59.247Z,52.61
2024-03-29T22:36:02.986Z,51.70
2024-03-29T22:41:05.901Z,51.87
2024-03-29T22:46:10.054Z,50.42
2024-03-29T22:51:13.153Z,50.57
2024-03-29T22:56:16.053Z,50.26
2024-03-29T23:01:18.958Z,50.53
2024-03-29T23:06:22.154Z,49.92
2024-03-29T23:11:25.095Z,49.23
2024-03-29T23:16:28.423Z,49.38
2024-03-29T23:21:31.733Z,50.81
2024-03-29T23:26:34.906Z,50.26
2024-03-29T23:31:37.770Z,50.77
2024-03-29T23:36:40.678Z,51.72
2024-03-29T23:41:43.538Z,50.73
2024-03-29T23:46:46.433Z,51.80
2024-03-29T23:51:49.457Z,51.87
2024-03-29T23:56:52.380Z,51.75
